createdAt,value
2018-09-27T00:01:13.802Z,3.15
2018-09-27T00:03:42.620Z,3.13
2018-09-27T00:06:11.954Z,3.27
2018-09-27T00:08:41.358Z,3.08
2018-09-27T00:11:10.700Z,3.13
2018-09-27T00:13:39.872Z,3.52
2018-09-27T00:16:09.008Z,3.68
2018-09-27T00:18:38.351Z,3.66
2018-09-27T00:21:07.523Z,3.49
2018-09-27T00:23:36.708Z,3.53
2018-09-27T00:26:05.921Z,3.77
2018-09-27T00:28:35.210Z,3.83
2018-09-27T00:31:04.291Z,3.73
2018-09-27T00:33:33.288Z,3.69
2018-09-27T00:36:02.164Z,3.58
2018-09-27T00:38:31.372Z,3.45
2018-09-27T00:41:00.648Z,3.33
2018-09-27T00:43:29.816Z,3.46
2018-09-27T00:45:59.134Z,3.38
2018-09-27T00:48:28.390Z,3.06
2018-09-27T00:50:57.508Z,3.05
2018-09-27T00:53:26.723Z,3.05
2018-09-27T00:55:56.047Z,2.84
2018-09-27T00:58:24.860Z,3.03
2018-09-27T01:00:53.665Z,3.00
2018-09-27T01:03:22.528Z,3.23
2018-09-27T01:05:51.379Z,3.08
2018-09-27T01:08:20.672Z,3.22
2018-09-27T01:10:49.884Z,3.25
2018-09-27T01:13:19.139Z,3.47
2018-09-27T01:15:48.375Z,3.37
2018-09-27T01:18:17.659Z,3.22
2018-09-27T01:20:46.983Z,3.15
2018-09-27T01:23:16.058Z,3.28
2018-09-27T01:25:45.219Z,3.29
2018-09-27T01:28:14.462Z,3.39
2018-09-27T01:30:43.319Z,3.34
2018-09-27T01:33:12.200Z,3.40
2018-09-27T01:35:41.344Z,3.40
2018-09-27T01:38:10.575Z,3.39
2018-09-27T01:40:39.880Z,3.47
2018-09-27T01:43:09.088Z,3.37
2018-09-27T01:45:38.256Z,3.31
2018-09-27T01:48:07.453Z,3.21
2018-09-27T01:50:36.582Z,3.43
2018-09-27T01:53:05.742Z,3.36
2018-09-27T01:55:35.007Z,3.33
2018-09-27T01:58:03.915Z,3.33
2018-09-27T02:00:32.782Z,3.30
2018-09-27T02:03:01.701Z,3.26
2018-09-27T02:05:30.815Z,3.22
2018-09-27T02:07:59.983Z,3.12
2018-09-27T02:10:29.175Z,2.85
2018-09-27T02:12:58.313Z,2.73
2018-09-27T02:15:27.579Z,2.58
2018-09-27T02:17:56.924Z,2.31
2018-09-27T02:20:26.056Z,2.35
2018-09-27T02:22:55.190Z,2.57
2018-09-27T02:25:24.117Z,2.63
2018-09-27T02:27:53.864Z,2.58
2018-09-27T02:30:22.726Z,2.31
2018-09-27T02:32:51.527Z,2.16
2018-09-27T02:35:20.663Z,2.32
2018-09-27T02:37:49.892Z,2.38
2018-09-27T02:40:19.148Z,2.64
2018-09-27T02:42:48.254Z,2.45
2018-09-27T02:45:17.465Z,2.45
2018-09-27T02:47:46.873Z,2.46
2018-09-27T02:50:16.119Z,2.68
2018-09-27T02:52:45.278Z,2.61
2018-09-27T02:55:14.813Z,2.79
2018-09-27T02:57:43.644Z,2.61
2018-09-27T03:00:12.454Z,2.75
2018-09-27T03:02:41.280Z,2.88
2018-09-27T03:05:10.702Z,2.69
2018-09-27T03:07:39.847Z,2.72
2018-09-27T03:10:09.071Z,2.78
2018-09-27T03:12:38.220Z,2.75
2018-09-27T03:15:07.416Z,2.65
2018-09-27T03:17:36.658Z,2.61
2018-09-27T03:20:05.918Z,2.68
2018-09-27T03:22:35.159Z,2.59
2018-09-27T03:25:04.150Z,2.55
2018-09-27T03:27:33.011Z,2.68
2018-09-27T03:30:01.879Z,2.61
2018-09-27T03:32:30.774Z,2.59
2018-09-27T03:34:59.904Z,2.50
2018-09-27T03:37:28.965Z,2.55
2018-09-27T03:39:58.083Z,2.53
2018-09-27T03:42:27.190Z,2.46
2018-09-27T03:44:56.367Z,2.48
2018-09-27T03:47:25.413Z,2.44
2018-09-27T03:49:54.824Z,2.41
2018-09-27T03:52:24.111Z,2.35
2018-09-27T03:54:53.343Z,2.32
2018-09-27T03:57:22.471Z,2.26
2018-09-27T03:59:51.427Z,2.24
2018-09-27T04:02:20.222Z,2.29
2018-09-27T04:04:49.450Z,2.29
2018-09-27T04:07:18.694Z,2.30
2018-09-27T04:09:47.996Z,2.28
2018-09-27T04:12:17.297Z,2.31
2018-09-27T04:14:46.485Z,2.34
2018-09-27T04:17:15.680Z,2.21
2018-09-27T04:19:44.698Z,2.23
2018-09-27T04:22:13.964Z,2.22
2018-09-27T04:24:43.009Z,2.30
2018-09-27T04:27:11.879Z,2.27
2018-09-27T04:29:40.794Z,2.24
2018-09-27T04:32:09.641Z,2.30
2018-09-27T04:34:39.050Z,2.24
2018-09-27T04:37:08.347Z,2.21
2018-09-27T04:39:37.591Z,2.17
2018-09-27T04:42:06.719Z,2.31
2018-09-27T04:44:35.923Z,2.39
2018-09-27T04:47:05.129Z,2.45
2018-09-27T04:49:34.508Z,2.24
2018-09-27T04:52:03.771Z,2.22
2018-09-27T04:54:33.034Z,2.41
2018-09-27T04:57:02.242Z,2.54
2018-09-27T04:59:31.161Z,2.45
2018-09-27T05:02:00.340Z,2.41
2018-09-27T05:04:29.718Z,2.42
2018-09-27T05:06:58.971Z,2.62
2018-09-27T05:09:28.199Z,2.80
2018-09-27T05:11:57.418Z,2.83
2018-09-27T05:14:26.565Z,2.86
2018-09-27T05:16:56.005Z,3.12
2018-09-27T05:19:24.879Z,3.16
2018-09-27T05:21:54.231Z,3.24
2018-09-27T05:24:23.376Z,3.26
2018-09-27T05:26:52.294Z,3.57
2018-09-27T05:29:21.218Z,3.39
2018-09-27T05:31:50.092Z,3.57
2018-09-27T05:34:19.190Z,3.85
2018-09-27T05:36:48.323Z,4.02
2018-09-27T05:39:17.608Z,4.12
2018-09-27T05:41:46.690Z,4.07
2018-09-27T05:44:15.910Z,4.34
2018-09-27T05:46:45.098Z,4.35
2018-09-27T05:49:14.272Z,4.39
2018-09-27T05:51:43.561Z,4.52
2018-09-27T05:54:12.764Z,4.56
2018-09-27T05:56:41.720Z,4.54
2018-09-27T05:59:10.613Z,4.52
2018-09-27T06:01:39.492Z,4.67
2018-09-27T06:04:08.454Z,4.79
2018-09-27T06:06:37.247Z,4.97
2018-09-27T06:09:09.678Z,5.15
2018-09-27T06:11:38.386Z,5.06
2018-09-27T06:14:07.919Z,5.27
2018-09-27T06:16:38.027Z,5.41
2018-09-27T06:19:07.567Z,5.62
2018-09-27T06:21:36.480Z,5.70
2018-09-27T06:24:05.552Z,5.85
2018-09-27T06:26:34.235Z,6.02
2018-09-27T06:29:02.982Z,6.05
2018-09-27T06:31:31.743Z,6.17
2018-09-27T06:34:00.468Z,6.25
2018-09-27T06:36:29.502Z,6.39
2018-09-27T06:38:58.541Z,6.45
2018-09-27T06:41:27.628Z,6.60
2018-09-27T06:43:56.735Z,6.70
2018-09-27T06:46:26.188Z,6.70
2018-09-27T06:48:55.195Z,6.97
2018-09-27T06:51:24.334Z,7.24
2018-09-27T06:53:53.468Z,7.34
2018-09-27T06:56:22.192Z,7.44
2018-09-27T06:58:50.875Z,7.58
2018-09-27T07:01:19.812Z,7.64
2018-09-27T07:03:48.505Z,7.80
2018-09-27T07:06:17.333Z,7.98
2018-09-27T07:08:46.458Z,8.21
2018-09-27T07:11:15.514Z,8.47
2018-09-27T07:13:44.759Z,8.57
2018-09-27T07:16:13.619Z,8.69
2018-09-27T07:18:43.179Z,8.76
2018-09-27T07:21:12.076Z,9.00
2018-09-27T07:23:41.230Z,9.35
2018-09-27T07:26:09.986Z,9.42
2018-09-27T07:28:38.746Z,9.43
2018-09-27T07:31:07.720Z,9.68
2018-09-27T07:33:36.850Z,9.80
2018-09-27T07:36:06.142Z,10.02
2018-09-27T07:38:34.917Z,10.16
2018-09-27T07:41:04.150Z,10.47
2018-09-27T07:43:33.305Z,10.58
2018-09-27T07:46:02.885Z,10.71
2018-09-27T07:48:32.279Z,10.72
2018-09-27T07:51:01.223Z,10.95
2018-09-27T07:53:30.119Z,11.05
2018-09-27T07:55:58.879Z,11.15
2018-09-27T07:58:27.516Z,11.33
2018-09-27T08:00:56.279Z,11.37
2018-09-27T08:03:25.190Z,11.56
2018-09-27T08:05:54.161Z,11.51
2018-09-27T08:08:22.994Z,11.67
2018-09-27T08:10:52.040Z,11.78
2018-09-27T08:13:20.806Z,11.93
2018-09-27T08:15:49.643Z,11.95
2018-09-27T08:18:19.022Z,12.22
2018-09-27T08:20:47.875Z,12.19
2018-09-27T08:23:16.643Z,12.23
2018-09-27T08:25:45.382Z,12.32
2018-09-27T08:28:14.171Z,12.42
2018-09-27T08:30:42.924Z,12.56
2018-09-27T08:33:11.909Z,12.29
2018-09-27T08:35:41.065Z,12.59
2018-09-27T08:38:09.959Z,12.72
2018-09-27T08:40:39.538Z,12.52
2018-09-27T08:43:08.445Z,12.07
2018-09-27T08:45:37.444Z,12.43
2018-09-27T08:48:06.691Z,12.48
2018-09-27T08:50:35.979Z,12.65
2018-09-27T08:53:04.943Z,12.83
2018-09-27T08:55:34.083Z,12.98
2018-09-27T08:58:03.006Z,13.07
2018-09-27T09:00:31.658Z,13.23
2018-09-27T09:03:00.540Z,13.46
2018-09-27T09:05:29.610Z,13.47
2018-09-27T09:07:58.586Z,13.60
2018-09-27T09:10:27.708Z,13.79
2018-09-27T09:12:56.573Z,13.36
2018-09-27T09:15:25.922Z,13.97
2018-09-27T09:17:55.223Z,13.92
2018-09-27T09:20:23.949Z,13.97
2018-09-27T09:22:53.160Z,14.17
2018-09-27T09:25:22.180Z,14.54
2018-09-27T09:27:50.887Z,14.89
2018-09-27T09:30:19.957Z,14.82
2018-09-27T09:32:48.960Z,15.21
2018-09-27T09:35:18.274Z,15.52
2018-09-27T09:37:47.125Z,15.85
2018-09-27T09:40:16.328Z,15.58
2018-09-27T09:42:45.212Z,15.63
2018-09-27T09:45:14.294Z,16.00
2018-09-27T09:47:43.567Z,15.72
2018-09-27T09:50:12.627Z,16.31
2018-09-27T09:52:41.707Z,16.86
2018-09-27T09:55:10.772Z,17.41
2018-09-27T09:57:39.386Z,17.42
2018-09-27T10:00:08.434Z,17.62
2018-09-27T10:02:37.758Z,17.06
2018-09-27T10:05:06.727Z,17.52
2018-09-27T10:07:35.858Z,18.12
2018-09-27T10:10:04.807Z,18.33
2018-09-27T10:12:33.727Z,18.79
2018-09-27T10:15:02.672Z,18.89
2018-09-27T10:17:31.741Z,19.04
2018-09-27T10:20:00.560Z,19.01
2018-09-27T10:22:29.358Z,19.08
2018-09-27T10:24:58.100Z,19.47
2018-09-27T10:27:26.837Z,19.39
2018-09-27T10:29:55.718Z,19.36
2018-09-27T10:32:24.683Z,19.35
2018-09-27T10:34:53.640Z,19.72
2018-09-27T10:37:22.531Z,20.02
2018-09-27T10:39:51.632Z,20.10
2018-09-27T10:42:20.766Z,20.55
2018-09-27T10:44:49.731Z,20.34
2018-09-27T10:47:18.847Z,20.49
2018-09-27T10:49:47.975Z,20.14
2018-09-27T10:52:16.911Z,20.08
2018-09-27T10:54:45.652Z,20.11
2018-09-27T10:57:14.448Z,20.54
2018-09-27T10:59:43.587Z,20.39
2018-09-27T11:02:12.607Z,20.26
2018-09-27T11:04:41.524Z,20.72
2018-09-27T11:07:10.460Z,20.86
2018-09-27T11:09:39.205Z,20.20
2018-09-27T11:12:08.263Z,21.02
2018-09-27T11:14:37.079Z,21.75
2018-09-27T11:17:05.876Z,22.13
2018-09-27T11:19:34.959Z,21.98
2018-09-27T11:22:04.023Z,21.64
2018-09-27T11:24:32.743Z,22.34
2018-09-27T11:27:01.450Z,22.33
2018-09-27T11:29:35.245Z,21.50
2018-09-27T11:32:09.158Z,22.07
2018-09-27T11:34:38.191Z,22.28
2018-09-27T11:37:07.054Z,21.71
2018-09-27T11:39:36.092Z,22.25
2018-09-27T11:42:05.024Z,22.19
2018-09-27T11:44:34.115Z,21.94
2018-09-27T11:47:02.899Z,22.32
2018-09-27T11:49:31.856Z,22.75
2018-09-27T11:52:00.712Z,21.96
2018-09-27T11:54:30.324Z,22.70
2018-09-27T11:56:59.082Z,23.25
2018-09-27T11:59:27.911Z,22.85
2018-09-27T12:01:56.757Z,23.03
2018-09-27T12:04:25.603Z,23.23
2018-09-27T12:06:54.528Z,23.28
2018-09-27T12:09:23.440Z,23.21
2018-09-27T12:11:52.415Z,22.70
2018-09-27T12:14:22.218Z,22.62
2018-09-27T12:16:51.088Z,22.97
2018-09-27T12:19:19.836Z,23.34
2018-09-27T12:21:48.609Z,23.34
2018-09-27T12:24:17.666Z,23.35
2018-09-27T12:26:46.444Z,23.51
2018-09-27T12:29:16.099Z,23.33
2018-09-27T12:31:44.913Z,24.36
2018-09-27T12:34:13.997Z,24.48
2018-09-27T12:36:42.871Z,24.37
2018-09-27T12:39:13.358Z,24.65
2018-09-27T12:41:42.162Z,25.04
2018-09-27T12:44:11.100Z,25.14
2018-09-27T12:46:40.200Z,25.90
2018-09-27T12:49:09.137Z,25.60
2018-09-27T12:51:38.318Z,25.74
2018-09-27T12:54:07.053Z,24.69
2018-09-27T12:56:35.824Z,23.65
2018-09-27T12:59:04.811Z,24.60
2018-09-27T13:01:33.587Z,25.35
2018-09-27T13:04:02.423Z,25.83
2018-09-27T13:06:31.338Z,25.37
2018-09-27T13:09:00.539Z,25.40
2018-09-27T13:11:29.647Z,25.56
2018-09-27T13:13:58.579Z,26.31
2018-09-27T13:16:27.636Z,26.07
2018-09-27T13:18:57.942Z,25.49
2018-09-27T13:21:25.722Z,25.55
2018-09-27T13:23:54.559Z,25.22
2018-09-27T13:26:23.334Z,25.24
2018-09-27T13:28:52.512Z,25.23
2018-09-27T13:31:21.590Z,24.98
2018-09-27T13:33:50.662Z,25.96
2018-09-27T13:36:19.675Z,26.23
2018-09-27T13:38:48.516Z,26.49
2018-09-27T13:41:17.795Z,25.90
2018-09-27T13:43:46.924Z,26.22
2018-09-27T13:46:15.977Z,26.60
2018-09-27T13:48:44.883Z,26.89
2018-09-27T13:51:13.681Z,26.76
2018-09-27T13:53:42.405Z,26.33
2018-09-27T13:56:11.263Z,26.13
2018-09-27T13:58:40.114Z,26.16
2018-09-27T14:01:09.210Z,26.30
2018-09-27T14:03:38.130Z,25.69
2018-09-27T14:06:07.318Z,25.89
2018-09-27T14:08:36.630Z,26.10
2018-09-27T14:11:05.687Z,26.16
2018-09-27T14:13:34.562Z,26.24
2018-09-27T14:16:03.727Z,25.92
2018-09-27T14:18:33.045Z,25.79
2018-09-27T14:21:01.692Z,25.99
2018-09-27T14:23:30.482Z,25.88
2018-09-27T14:25:59.704Z,25.88
2018-09-27T14:28:28.878Z,26.22
2018-09-27T14:30:58.021Z,26.53
2018-09-27T14:33:27.895Z,26.42
2018-09-27T14:35:57.759Z,25.56
2018-09-27T14:38:26.996Z,25.25
2018-09-27T14:40:56.274Z,24.63
2018-09-27T14:43:25.316Z,24.91
2018-09-27T14:45:54.582Z,24.96
2018-09-27T14:48:23.318Z,25.22
2018-09-27T14:50:52.267Z,25.23
2018-09-27T14:53:20.926Z,25.23
2018-09-27T14:55:49.628Z,25.43
2018-09-27T14:58:18.962Z,25.48
2018-09-27T15:00:47.875Z,25.34
2018-09-27T15:03:16.930Z,25.43
2018-09-27T15:05:46.141Z,25.84
2018-09-27T15:08:14.950Z,25.99
2018-09-27T15:10:43.886Z,26.04
2018-09-27T15:13:13.231Z,26.15
2018-09-27T15:15:42.196Z,25.89
2018-09-27T15:18:11.105Z,26.03
2018-09-27T15:20:40.002Z,25.75
2018-09-27T15:23:08.782Z,26.10
2018-09-27T15:25:37.494Z,26.12
2018-09-27T15:28:06.774Z,26.29
2018-09-27T15:30:35.823Z,26.21
2018-09-27T15:33:04.682Z,25.99
2018-09-27T15:35:33.926Z,25.77
2018-09-27T15:38:02.844Z,25.35
2018-09-27T15:40:31.732Z,24.69
2018-09-27T15:43:00.760Z,24.87
2018-09-27T15:45:29.645Z,24.58
2018-09-27T15:47:58.820Z,24.53
2018-09-27T15:50:27.785Z,24.20
2018-09-27T15:52:56.446Z,23.92
2018-09-27T15:55:25.217Z,23.66
2018-09-27T15:57:54.296Z,22.93
2018-09-27T16:00:23.303Z,22.52
2018-09-27T16:02:52.238Z,21.60
2018-09-27T16:05:21.614Z,20.76
2018-09-27T16:07:50.466Z,19.96
2018-09-27T16:10:19.563Z,19.57
2018-09-27T16:12:48.574Z,18.81
2018-09-27T16:15:17.292Z,18.16
2018-09-27T16:17:46.432Z,17.99
2018-09-27T16:20:15.762Z,17.63
2018-09-27T16:22:44.366Z,17.36
2018-09-27T16:25:13.081Z,16.97
2018-09-27T16:27:42.131Z,16.83
2018-09-27T16:30:11.260Z,16.67
2018-09-27T16:32:40.199Z,16.34
2018-09-27T16:35:09.446Z,16.05
2018-09-27T16:37:38.293Z,15.83
2018-09-27T16:40:07.373Z,15.56
2018-09-27T16:42:36.523Z,15.45
2018-09-27T16:45:05.830Z,15.38
2018-09-27T16:47:34.795Z,15.10
2018-09-27T16:50:03.711Z,14.97
2018-09-27T16:52:32.363Z,14.79
2018-09-27T16:55:01.150Z,14.65
2018-09-27T16:57:30.147Z,14.49
2018-09-27T16:59:59.226Z,14.39
2018-09-27T17:02:28.306Z,13.86
2018-09-27T17:04:57.304Z,14.02
2018-09-27T17:07:26.494Z,13.83
2018-09-27T17:09:55.570Z,13.91
2018-09-27T17:12:24.673Z,13.87
2018-09-27T17:14:53.712Z,13.68
2018-09-27T17:17:22.475Z,13.69
2018-09-27T17:19:51.194Z,13.54
2018-09-27T17:22:19.941Z,13.49
2018-09-27T17:24:48.546Z,13.35
2018-09-27T17:27:17.592Z,13.28
2018-09-27T17:29:46.859Z,13.03
2018-09-27T17:32:16.031Z,13.07
2018-09-27T17:34:45.299Z,13.05
2018-09-27T17:37:14.342Z,12.89
2018-09-27T17:39:43.335Z,12.79
2018-09-27T17:42:12.225Z,12.76
2018-09-27T17:44:41.652Z,12.76
2018-09-27T17:47:10.515Z,12.68
2018-09-27T17:49:39.440Z,12.53
2018-09-27T17:52:08.487Z,12.49
2018-09-27T17:54:37.346Z,12.41
2018-09-27T17:57:06.367Z,11.87
2018-09-27T17:59:35.408Z,11.58
2018-09-27T18:02:04.608Z,11.05
2018-09-27T18:04:33.597Z,10.79
2018-09-27T18:07:02.899Z,10.50
2018-09-27T18:09:31.793Z,10.25
2018-09-27T18:12:00.818Z,10.18
2018-09-27T18:14:29.991Z,10.22
2018-09-27T18:16:58.957Z,9.97
2018-09-27T18:19:27.728Z,9.92
2018-09-27T18:21:56.380Z,10.15
2018-09-27T18:24:25.052Z,9.71
2018-09-27T18:26:53.970Z,9.48
2018-09-27T18:29:23.031Z,9.37
2018-09-27T18:31:51.986Z,8.90
2018-09-27T18:34:20.642Z,9.16
2018-09-27T18:36:49.694Z,8.68
2018-09-27T18:39:18.845Z,8.51
2018-09-27T18:41:47.753Z,8.46
2018-09-27T18:44:17.005Z,8.46
2018-09-27T18:46:45.668Z,8.51
2018-09-27T18:49:14.754Z,8.66
2018-09-27T18:51:43.726Z,8.55
2018-09-27T18:54:12.382Z,8.59
2018-09-27T18:56:41.235Z,8.59
2018-09-27T18:59:10.135Z,8.57
2018-09-27T19:01:39.204Z,8.48
2018-09-27T19:04:08.115Z,8.40
2018-09-27T19:06:37.415Z,8.46
2018-09-27T19:09:07.284Z,8.27
2018-09-27T19:11:36.282Z,8.29
2018-09-27T19:14:05.595Z,8.23
2018-09-27T19:16:34.343Z,8.14
2018-09-27T19:19:03.047Z,8.04
2018-09-27T19:21:31.946Z,8.07
2018-09-27T19:24:00.687Z,8.11
2018-09-27T19:26:29.616Z,8.01
2018-09-27T19:28:58.901Z,8.05
2018-09-27T19:31:28.023Z,7.92
2018-09-27T19:33:56.847Z,7.82
2018-09-27T19:36:25.787Z,7.76
2018-09-27T19:38:54.545Z,8.00
2018-09-27T19:41:23.335Z,8.16
2018-09-27T19:43:52.583Z,7.83
2018-09-27T19:46:21.647Z,7.67
2018-09-27T19:48:50.626Z,7.55
2018-09-27T19:51:19.534Z,7.64
2018-09-27T19:53:48.400Z,7.65
2018-09-27T19:56:17.204Z,7.39
2018-09-27T19:58:46.279Z,7.68
2018-09-27T20:01:15.141Z,7.77
2018-09-27T20:03:44.059Z,7.61
2018-09-27T20:06:13.282Z,7.50
2018-09-27T20:08:42.224Z,7.18
2018-09-27T20:11:11.260Z,7.37
2018-09-27T20:13:40.279Z,7.58
2018-09-27T20:16:09.438Z,7.54
2018-09-27T20:18:38.157Z,7.54
2018-09-27T20:21:06.802Z,7.77
2018-09-27T20:23:35.427Z,7.73
2018-09-27T20:26:04.342Z,7.29
2018-09-27T20:28:33.748Z,7.43
2018-09-27T20:31:02.473Z,7.01
2018-09-27T20:33:31.180Z,6.79
2018-09-27T20:35:59.998Z,6.59
2018-09-27T20:38:28.759Z,6.59
2018-09-27T20:40:57.453Z,6.62
2018-09-27T20:43:27.155Z,6.84
2018-09-27T20:45:55.946Z,6.92
2018-09-27T20:48:24.643Z,6.63
2018-09-27T20:50:53.558Z,6.72
2018-09-27T20:53:22.610Z,6.87
2018-09-27T20:55:51.486Z,6.85
2018-09-27T20:58:20.531Z,6.78
2018-09-27T21:00:49.392Z,6.67
2018-09-27T21:03:18.167Z,6.53
2018-09-27T21:05:47.010Z,6.50
2018-09-27T21:08:15.958Z,6.78
2018-09-27T21:10:44.860Z,6.87
2018-09-27T21:13:14.169Z,6.92
2018-09-27T21:15:42.946Z,6.92
2018-09-27T21:18:11.638Z,6.97
2018-09-27T21:20:40.328Z,6.83
2018-09-27T21:23:09.195Z,6.33
2018-09-27T21:25:37.947Z,6.19
2018-09-27T21:28:07.328Z,6.14
2018-09-27T21:30:36.475Z,6.08
2018-09-27T21:33:05.339Z,6.11
2018-09-27T21:35:34.359Z,5.92
2018-09-27T21:38:03.439Z,5.87
2018-09-27T21:40:32.279Z,5.96
2018-09-27T21:43:01.284Z,5.98
2018-09-27T21:45:30.238Z,5.98
2018-09-27T21:47:58.917Z,5.93
2018-09-27T21:50:27.811Z,6.07
2018-09-27T21:52:56.410Z,6.21
2018-09-27T21:55:25.166Z,6.22
2018-09-27T21:57:54.121Z,5.91
2018-09-27T22:00:22.876Z,5.92
2018-09-27T22:02:51.527Z,6.11
2018-09-27T22:05:20.600Z,5.95
2018-09-27T22:07:49.354Z,5.79
2018-09-27T22:10:17.995Z,5.92
2018-09-27T22:12:47.015Z,6.02
2018-09-27T22:15:15.828Z,6.30
2018-09-27T22:17:44.398Z,6.29
2018-09-27T22:20:13.256Z,6.24
2018-09-27T22:22:41.847Z,6.37
2018-09-27T22:25:10.637Z,6.17
2018-09-27T22:27:39.588Z,6.01
2018-09-27T22:30:08.769Z,5.78
2018-09-27T22:32:37.554Z,5.74
2018-09-27T22:35:06.580Z,5.77
2018-09-27T22:37:35.363Z,5.66
2018-09-27T22:40:04.140Z,5.78
2018-09-27T22:42:33.058Z,5.54
2018-09-27T22:45:01.924Z,5.53
2018-09-27T22:47:30.507Z,5.61
2018-09-27T22:49:59.282Z,5.54
2018-09-27T22:52:27.843Z,5.58
2018-09-27T22:54:56.660Z,5.33
2018-09-27T22:57:25.368Z,5.68
2018-09-27T22:59:54.088Z,5.41
2018-09-27T23:02:22.831Z,5.50
2018-09-27T23:04:51.610Z,5.42
2018-09-27T23:07:20.366Z,5.39
2018-09-27T23:09:49.097Z,5.39
2018-09-27T23:12:17.959Z,5.26
2018-09-27T23:14:46.782Z,5.23
2018-09-27T23:17:15.972Z,5.17
2018-09-27T23:19:44.847Z,5.17
2018-09-27T23:22:13.482Z,5.15
2018-09-27T23:24:42.394Z,5.09
2018-09-27T23:27:11.371Z,5.25
2018-09-27T23:29:40.503Z,5.01
2018-09-27T23:32:09.330Z,5.06
2018-09-27T23:34:38.451Z,5.12
2018-09-27T23:37:07.929Z,5.06
2018-09-27T23:39:36.760Z,4.97
2018-09-27T23:42:05.931Z,4.91
2018-09-27T23:44:34.719Z,5.00
2018-09-27T23:47:03.596Z,4.89
2018-09-27T23:49:32.594Z,4.91
2018-09-27T23:52:01.261Z,5.25
2018-09-27T23:54:30.181Z,5.31
2018-09-27T23:56:59.250Z,4.98
2018-09-27T23:59:28.107Z,5.00
